createdAt,value
2023-03-17T06:31:06.053Z,2.56
2023-03-17T06:32:19.273Z,2.51
2023-03-17T06:34:53.326Z,2.69
2023-03-17T06:35:54.842Z,2.71
2023-03-17T06:36:54.703Z,2.55
2023-03-17T06:37:54.608Z,2.58
2023-03-17T06:38:56.839Z,2.45
2023-03-17T06:39:54.477Z,2.46
2023-03-17T06:40:55.519Z,2.46
2023-03-17T06:41:54.531Z,2.52
2023-03-17T06:42:54.463Z,2.66
2023-03-17T06:43:55.404Z,2.69
2023-03-17T06:44:54.429Z,2.73
2023-03-17T06:45:54.311Z,2.61
2023-03-17T06:46:54.404Z,2.69
2023-03-17T06:47:54.345Z,2.94
2023-03-17T06:48:54.363Z,2.81
2023-03-17T06:49:54.445Z,3.00
2023-03-17T06:50:54.424Z,3.06
2023-03-17T06:51:54.428Z,3.06
2023-03-17T06:52:55.389Z,3.09
2023-03-17T06:53:54.436Z,3.16
2023-03-17T06:54:54.529Z,3.20
2023-03-17T06:55:54.362Z,3.18
2023-03-17T06:56:56.289Z,3.39
2023-03-17T06:57:55.357Z,3.42
2023-03-17T06:58:54.438Z,3.47
2023-03-17T06:59:54.330Z,3.54
2023-03-17T07:00:54.370Z,3.67
2023-03-17T07:02:54.213Z,3.82
2023-03-17T07:05:42.751Z,3.89
2023-03-17T07:06:44.032Z,3.98
2023-03-17T07:07:43.989Z,4.07
2023-03-17T07:08:44.125Z,4.18
2023-03-17T07:09:43.855Z,4.21
2023-03-17T07:10:43.920Z,4.29
2023-03-17T07:13:32.821Z,4.50
2023-03-17T07:14:34.312Z,4.47
2023-03-17T07:15:34.017Z,4.64
2023-03-17T07:16:33.968Z,4.64
2023-03-17T07:17:33.883Z,4.69
2023-03-17T07:18:33.929Z,4.83
2023-03-17T07:19:34.869Z,4.89
2023-03-17T07:20:33.826Z,4.98
2023-03-17T07:22:11.154Z,4.95
2023-03-17T07:22:33.845Z,4.98
2023-03-17T07:23:33.757Z,5.07
2023-03-17T07:24:34.781Z,5.25
2023-03-17T07:25:34.047Z,5.22
2023-03-17T07:26:33.950Z,5.27
2023-03-17T07:27:34.807Z,5.31
2023-03-17T07:28:34.003Z,5.41
2023-03-17T07:29:38.932Z,5.38
2023-03-17T07:30:33.918Z,5.52
2023-03-17T07:31:33.910Z,5.49
2023-03-17T07:32:34.409Z,5.70
2023-03-17T07:33:33.858Z,5.73
2023-03-17T07:34:33.825Z,5.86
2023-03-17T07:35:34.252Z,5.89
2023-03-17T07:36:33.804Z,5.88
2023-03-17T07:37:33.826Z,5.86
2023-03-17T07:38:34.002Z,6.01
2023-03-17T07:39:34.698Z,6.07
2023-03-17T07:40:35.315Z,6.04
2023-03-17T07:41:34.790Z,6.25
2023-03-17T07:42:33.802Z,6.35
2023-03-17T07:43:33.711Z,6.44
2023-03-17T07:44:33.959Z,6.47
2023-03-17T07:45:34.154Z,6.54
2023-03-17T07:46:33.778Z,6.59
2023-03-17T07:47:33.830Z,6.61
2023-03-17T07:48:33.760Z,6.62
2023-03-17T07:49:41.383Z,6.61
2023-03-17T07:50:35.630Z,6.80
2023-03-17T07:51:34.730Z,6.86
2023-03-17T07:52:33.705Z,6.73
2023-03-17T07:53:33.832Z,6.94
2023-03-17T07:54:33.711Z,6.97
2023-03-17T07:55:33.764Z,7.02
2023-03-17T07:56:52.441Z,6.95
2023-03-17T07:57:33.660Z,7.12
2023-03-17T07:58:33.663Z,7.13
2023-03-17T07:59:33.771Z,7.04
2023-03-17T08:00:34.034Z,7.08
2023-03-17T08:01:33.607Z,7.24
2023-03-17T08:02:34.658Z,7.31
2023-03-17T08:03:33.784Z,7.29
2023-03-17T08:04:33.666Z,7.45
2023-03-17T08:05:33.601Z,7.47
2023-03-17T08:06:33.611Z,7.45
2023-03-17T08:07:33.583Z,7.34
2023-03-17T08:08:34.216Z,7.34
2023-03-17T08:10:14.168Z,7.41
2023-03-17T08:10:33.933Z,7.31
2023-03-17T08:11:33.525Z,7.50
2023-03-17T08:12:33.505Z,7.56
2023-03-17T08:15:53.892Z,7.59
2023-03-17T08:16:54.433Z,7.56
2023-03-17T08:18:54.109Z,7.71
2023-03-17T08:19:54.185Z,7.77
2023-03-17T08:20:54.201Z,7.78
2023-03-17T08:21:54.043Z,8.08
2023-03-17T08:27:37.209Z,8.11
2023-03-17T08:28:39.186Z,8.28
2023-03-17T08:29:38.615Z,8.14
2023-03-17T08:30:38.717Z,8.22
2023-03-17T08:31:39.104Z,8.29
2023-03-17T08:32:38.720Z,8.39
2023-03-17T08:33:38.358Z,8.51
2023-03-17T08:38:04.941Z,8.87
2023-03-17T08:39:06.256Z,8.75
2023-03-17T08:40:06.327Z,8.90
2023-03-17T08:42:58.586Z,9.06
2023-03-17T08:43:59.998Z,9.10
2023-03-17T08:46:46.766Z,9.16
2023-03-17T08:47:48.028Z,9.30
2023-03-17T08:48:48.106Z,9.43
2023-03-17T08:49:48.071Z,9.34
2023-03-17T08:50:48.060Z,9.32
2023-03-17T08:51:47.927Z,9.16
2023-03-17T08:54:41.959Z,9.16
2023-03-17T08:55:43.161Z,9.24
2023-03-17T08:56:43.231Z,9.18
2023-03-17T08:57:43.179Z,9.23
2023-03-17T08:58:43.203Z,9.21
2023-03-17T09:01:38.732Z,9.43
2023-03-17T09:02:40.541Z,9.56
2023-03-17T09:03:39.957Z,9.75
2023-03-17T09:04:40.439Z,9.70
2023-03-17T09:05:39.950Z,9.91
2023-03-17T09:06:46.362Z,9.97
2023-03-17T09:07:41.885Z,10.06
2023-03-17T09:08:39.685Z,10.04
2023-03-17T09:09:39.775Z,10.09
2023-03-17T09:10:39.778Z,10.09
2023-03-17T09:11:39.737Z,10.26
2023-03-17T09:12:40.515Z,10.30
2023-03-17T09:13:40.451Z,10.32
2023-03-17T09:16:26.988Z,10.59
2023-03-17T09:17:28.114Z,10.58
2023-03-17T09:18:28.078Z,10.66
2023-03-17T09:21:38.995Z,10.70
2023-03-17T09:22:40.148Z,10.78
2023-03-17T09:30:08.091Z,11.20
2023-03-17T09:31:09.604Z,11.38
2023-03-17T09:32:09.537Z,11.25
2023-03-17T09:33:09.361Z,11.32
2023-03-17T09:34:09.281Z,11.36
2023-03-17T09:35:29.508Z,11.44
2023-03-17T09:36:09.251Z,11.50
2023-03-17T09:37:09.220Z,11.47
2023-03-17T09:38:09.227Z,11.47
2023-03-17T09:39:09.892Z,11.35
2023-03-17T09:42:28.400Z,11.72
2023-03-17T09:43:29.734Z,11.59
2023-03-17T09:58:11.809Z,12.41
2023-03-17T09:59:13.224Z,12.59
2023-03-17T10:00:13.141Z,12.64
2023-03-17T14:10:47.300Z,15.46
2023-03-17T14:11:48.683Z,15.52
2023-03-17T14:14:53.941Z,15.24
2023-03-17T14:15:47.333Z,15.27
2023-03-17T14:16:47.663Z,15.27
2023-03-17T14:17:49.293Z,15.26
2023-03-17T14:18:47.290Z,15.27
2023-03-17T14:19:47.444Z,15.38
2023-03-17T14:21:26.961Z,15.27
2023-03-17T14:21:47.286Z,15.33
2023-03-17T14:25:35.486Z,15.30
2023-03-17T14:26:36.809Z,15.41
2023-03-17T14:27:36.749Z,15.35
2023-03-17T14:39:54.351Z,15.48
2023-03-17T14:48:22.110Z,15.41
2023-03-17T14:49:23.420Z,15.38
2023-03-17T14:50:23.360Z,15.46
2023-03-17T14:51:43.063Z,15.42
2023-03-17T14:52:23.252Z,15.38
2023-03-17T14:53:23.242Z,15.48
2023-03-17T14:54:23.249Z,15.38
2023-03-17T14:55:58.452Z,15.41
2023-03-17T14:56:23.216Z,15.48
2023-03-17T14:57:23.295Z,15.42
